createdAt,value
2022-10-25T00:01:28.419Z,94359.00
2022-10-25T00:03:56.149Z,94367.00
2022-10-25T00:06:23.787Z,94363.00
2022-10-25T00:08:50.806Z,94372.00
2022-10-25T00:11:32.215Z,94359.00
2022-10-25T00:14:03.312Z,94355.00
2022-10-25T00:16:35.538Z,94362.00
2022-10-25T00:19:02.710Z,94375.00
2022-10-25T00:21:29.570Z,94373.00
2022-10-25T00:23:56.496Z,94375.00
2022-10-25T00:26:26.345Z,94378.00
2022-10-25T00:28:55.633Z,94376.00
2022-10-25T00:31:24.099Z,94373.00
2022-10-25T00:33:51.400Z,94375.00
2022-10-25T00:36:24.943Z,94374.00
2022-10-25T00:38:52.732Z,94370.00
2022-10-25T00:41:24.089Z,94364.00
2022-10-25T00:44:32.744Z,94370.00
2022-10-25T00:47:24.680Z,94369.00
2022-10-25T00:50:46.099Z,94373.00
2022-10-25T00:53:20.022Z,94363.00
2022-10-25T00:55:59.549Z,94368.00
2022-10-25T00:58:28.770Z,94365.00
2022-10-25T01:00:58.216Z,94357.00
2022-10-25T01:03:33.910Z,94365.00
2022-10-25T01:06:05.522Z,94370.00
2022-10-25T01:08:34.589Z,94365.00
2022-10-25T01:11:04.272Z,94356.00
2022-10-25T01:13:31.294Z,94364.00
2022-10-25T01:16:23.118Z,94367.00
2022-10-25T01:18:58.557Z,94376.00
2022-10-25T01:21:46.743Z,94372.00
2022-10-25T01:24:28.485Z,94370.00
2022-10-25T01:27:19.549Z,94370.00
2022-10-25T01:30:04.911Z,94365.00
2022-10-25T01:33:23.075Z,94357.00
2022-10-25T01:36:16.695Z,94348.00
2022-10-25T01:38:55.974Z,94354.00
2022-10-25T01:41:25.572Z,94347.00
2022-10-25T01:44:09.235Z,94347.00
2022-10-25T01:46:50.449Z,94346.00
2022-10-25T01:49:45.594Z,94353.00
2022-10-25T01:52:18.510Z,94361.00
2022-10-25T01:54:45.294Z,94364.00
2022-10-25T01:57:39.618Z,94362.00
2022-10-25T02:00:18.928Z,94376.00
2022-10-25T02:03:04.436Z,94372.00
2022-10-25T02:06:09.569Z,94372.00
2022-10-25T02:08:36.440Z,94377.00
2022-10-25T02:11:24.342Z,94371.00
2022-10-25T02:14:09.835Z,94368.00
2022-10-25T02:16:47.986Z,94366.00
2022-10-25T02:19:19.853Z,94371.00
2022-10-25T02:21:51.568Z,94355.00
2022-10-25T02:24:23.398Z,94355.00
2022-10-25T02:26:51.929Z,94348.00
2022-10-25T02:29:23.993Z,94356.00
2022-10-25T02:31:51.023Z,94361.00
2022-10-25T02:34:21.434Z,94361.00
2022-10-25T02:36:50.408Z,94361.00
2022-10-25T02:39:19.782Z,94351.00
2022-10-25T02:41:46.660Z,94346.00
2022-10-25T02:45:34.788Z,94349.00
2022-10-25T02:48:04.265Z,94347.00
2022-10-25T02:50:31.094Z,94357.00
2022-10-25T02:53:00.946Z,94357.00
2022-10-25T02:55:27.786Z,94366.00
2022-10-25T02:57:54.592Z,94363.00
2022-10-25T03:00:27.153Z,94357.00
2022-10-25T03:02:53.992Z,94367.00
2022-10-25T03:05:23.155Z,94358.00
2022-10-25T03:07:49.997Z,94354.00
2022-10-25T03:10:19.505Z,94362.00
2022-10-25T03:12:46.524Z,94367.00
2022-10-25T03:15:15.795Z,94371.00
2022-10-25T03:17:42.585Z,94372.00
2022-10-25T03:20:12.154Z,94367.00
2022-10-25T03:22:38.979Z,94369.00
2022-10-25T03:27:45.623Z,94360.00
2022-10-25T03:30:19.199Z,94374.00
2022-10-25T03:32:48.314Z,94375.00
2022-10-25T03:35:17.762Z,94371.00
2022-10-25T03:37:44.897Z,94368.00
2022-10-25T03:40:12.282Z,94368.00
2022-10-25T03:42:44.161Z,94371.00
2022-10-25T03:45:12.347Z,94376.00
2022-10-25T03:47:40.379Z,94370.00
2022-10-25T03:50:10.039Z,94364.00
2022-10-25T03:52:37.104Z,94371.00
2022-10-25T03:55:07.716Z,94379.00
2022-10-25T03:57:34.763Z,94379.00
2022-10-25T04:00:01.639Z,94393.00
2022-10-25T04:02:28.931Z,94389.00
2022-10-25T04:04:58.294Z,94388.00
2022-10-25T04:07:28.131Z,94392.00
2022-10-25T04:10:01.180Z,94387.00
2022-10-25T04:12:30.599Z,94386.00
2022-10-25T04:14:57.445Z,94380.00
2022-10-25T04:17:24.385Z,94378.00
2022-10-25T04:19:51.186Z,94381.00
2022-10-25T04:22:21.011Z,94386.00
2022-10-25T04:24:50.156Z,94378.00
2022-10-25T04:27:18.065Z,94375.00
2022-10-25T04:29:45.381Z,94380.00
2022-10-25T04:32:17.235Z,94375.00
2022-10-25T04:34:46.626Z,94381.00
2022-10-25T04:37:13.521Z,94383.00
2022-10-25T04:39:40.368Z,94379.00
2022-10-25T04:42:10.297Z,94386.00
2022-10-25T04:44:37.167Z,94388.00
2022-10-25T04:47:03.993Z,94386.00
2022-10-25T04:49:30.809Z,94378.00
2022-10-25T04:51:58.383Z,94373.00
2022-10-25T04:54:25.170Z,94379.00
2022-10-25T04:56:54.309Z,94375.00
2022-10-25T04:59:23.688Z,94378.00
2022-10-25T05:01:53.012Z,94381.00
2022-10-25T05:04:19.994Z,94384.00
2022-10-25T05:06:48.906Z,94382.00
2022-10-25T05:09:15.757Z,94384.00
2022-10-25T05:11:42.641Z,94384.00
2022-10-25T05:14:09.485Z,94382.00
2022-10-25T05:16:39.356Z,94384.00
2022-10-25T05:19:06.424Z,94387.00
2022-10-25T05:21:33.431Z,94393.00
2022-10-25T05:24:02.115Z,94394.00
2022-10-25T05:26:31.198Z,94391.00
2022-10-25T05:29:01.294Z,94397.00
2022-10-25T05:31:30.492Z,94404.00
2022-10-25T05:34:01.180Z,94404.00
2022-10-25T05:36:32.732Z,94410.00
2022-10-25T05:39:03.378Z,94404.00
2022-10-25T05:41:33.228Z,94417.00
2022-10-25T05:44:03.368Z,94413.00
2022-10-25T05:46:32.764Z,94413.00
2022-10-25T05:49:00.480Z,94421.00
2022-10-25T05:51:35.667Z,94427.00
2022-10-25T05:54:18.244Z,94427.00
2022-10-25T05:56:47.579Z,94424.00
2022-10-25T05:59:15.006Z,94420.00
2022-10-25T06:01:47.094Z,94432.00
2022-10-25T06:04:16.137Z,94433.00
2022-10-25T06:06:47.144Z,94438.00
2022-10-25T06:09:17.325Z,94424.00
2022-10-25T06:11:44.322Z,94436.00
2022-10-25T06:14:11.531Z,94421.00
2022-10-25T06:16:39.211Z,94445.00
2022-10-25T06:19:07.079Z,94446.00
2022-10-25T06:21:38.888Z,94439.00
2022-10-25T06:24:08.876Z,94443.00
2022-10-25T06:26:35.756Z,94442.00
2022-10-25T06:29:05.655Z,94444.00
2022-10-25T06:31:35.583Z,94448.00
2022-10-25T06:34:03.620Z,94455.00
2022-10-25T06:36:35.790Z,94460.00
2022-10-25T06:39:05.707Z,94456.00
2022-10-25T06:41:41.047Z,94452.00
2022-10-25T06:44:11.206Z,94451.00
2022-10-25T06:47:11.541Z,94463.00
2022-10-25T06:49:27.970Z,94466.00
2022-10-25T06:51:55.089Z,94460.00
2022-10-25T06:54:26.676Z,94464.00
2022-10-25T06:56:55.978Z,94459.00
2022-10-25T06:59:23.582Z,94464.00
2022-10-25T07:01:50.680Z,94460.00
2022-10-25T07:04:17.745Z,94478.00
2022-10-25T07:06:50.099Z,94473.00
2022-10-25T07:09:19.764Z,94476.00
2022-10-25T07:11:46.614Z,94472.00
2022-10-25T07:14:13.490Z,94484.00
2022-10-25T07:16:40.372Z,94482.00
2022-10-25T07:19:10.564Z,94479.00
2022-10-25T07:21:37.490Z,94481.00
2022-10-25T07:24:04.566Z,94491.00
2022-10-25T07:26:34.589Z,94492.00
2022-10-25T07:29:04.718Z,94497.00
2022-10-25T07:31:35.352Z,94498.00
2022-10-25T07:34:08.662Z,94502.00
2022-10-25T07:36:35.678Z,94510.00
2022-10-25T07:39:05.072Z,94502.00
2022-10-25T07:41:31.992Z,94508.00
2022-10-25T07:44:01.540Z,94508.00
2022-10-25T07:46:28.402Z,94515.00
2022-10-25T07:49:00.027Z,94514.00
2022-10-25T07:51:29.360Z,94509.00
2022-10-25T07:53:58.499Z,94509.00
2022-10-25T07:56:25.472Z,94509.00
2022-10-25T07:58:52.907Z,94500.00
2022-10-25T08:01:25.846Z,94504.00
2022-10-25T08:03:56.738Z,94513.00
2022-10-25T08:06:25.310Z,94515.00
2022-10-25T08:08:52.254Z,94512.00
2022-10-25T08:11:19.424Z,94505.00
2022-10-25T08:13:50.707Z,94507.00
2022-10-25T08:16:20.682Z,94499.00
2022-10-25T08:18:47.622Z,94497.00
2022-10-25T08:21:15.195Z,94498.00
2022-10-25T08:23:42.201Z,94498.00
2022-10-25T08:26:11.497Z,94488.00
2022-10-25T08:28:38.431Z,94486.00
2022-10-25T08:31:08.478Z,94490.00
2022-10-25T08:33:35.966Z,94484.00
2022-10-25T08:36:03.544Z,94484.00
2022-10-25T08:38:33.151Z,94492.00
2022-10-25T08:41:22.488Z,94481.00
2022-10-25T08:43:55.132Z,94478.00
2022-10-25T08:46:31.463Z,94486.00
2022-10-25T08:49:07.240Z,94489.00
2022-10-25T08:51:41.667Z,94490.00
2022-10-25T08:54:28.216Z,94489.00
2022-10-25T08:57:20.054Z,94486.00
2022-10-25T09:00:07.084Z,94483.00
2022-10-25T09:02:42.002Z,94495.00
2022-10-25T09:05:55.431Z,94496.00
2022-10-25T09:09:04.307Z,94487.00
2022-10-25T09:11:57.520Z,94489.00
2022-10-25T09:14:39.215Z,94489.00
2022-10-25T09:17:43.120Z,94488.00
2022-10-25T09:20:35.251Z,94486.00
2022-10-25T09:23:31.164Z,94491.00
2022-10-25T09:26:19.148Z,94490.00
2022-10-25T09:29:20.343Z,94490.00
2022-10-25T09:31:54.143Z,94490.00
2022-10-25T09:34:23.705Z,94488.00
2022-10-25T09:37:07.595Z,94481.00
2022-10-25T09:39:45.176Z,94478.00
2022-10-25T09:42:26.832Z,94476.00
2022-10-25T09:45:00.032Z,94474.00
2022-10-25T09:47:48.315Z,94474.00
2022-10-25T09:50:30.742Z,94480.00
2022-10-25T09:53:23.928Z,94476.00
2022-10-25T09:55:58.442Z,94469.00
2022-10-25T09:58:31.195Z,94482.00
2022-10-25T10:01:05.771Z,94481.00
2022-10-25T10:03:35.995Z,94469.00
2022-10-25T10:06:17.807Z,94470.00
2022-10-25T10:08:51.325Z,94467.00
2022-10-25T10:11:37.441Z,94464.00
2022-10-25T10:14:26.340Z,94467.00
2022-10-25T10:16:57.151Z,94469.00
2022-10-25T10:19:35.483Z,94462.00
2022-10-25T10:22:16.996Z,94464.00
2022-10-25T10:25:01.401Z,94457.00
2022-10-25T10:27:34.362Z,94460.00
2022-10-25T10:30:18.650Z,94454.00
2022-10-25T10:32:57.333Z,94455.00
2022-10-25T10:35:36.784Z,94459.00
2022-10-25T10:38:43.151Z,94459.00
2022-10-25T10:41:28.885Z,94452.00
2022-10-25T10:44:28.621Z,94454.00
2022-10-25T10:46:58.263Z,94443.00
2022-10-25T10:49:43.439Z,94444.00
2022-10-25T10:53:16.192Z,94443.00
2022-10-25T10:55:46.131Z,94437.00
2022-10-25T10:58:38.177Z,94442.00
2022-10-25T11:01:17.017Z,94435.00
2022-10-25T11:03:53.835Z,94440.00
2022-10-25T11:06:48.792Z,94434.00
2022-10-25T11:09:32.739Z,94428.00
2022-10-25T11:12:14.913Z,94433.00
2022-10-25T11:14:42.501Z,94415.00
2022-10-25T11:17:29.803Z,94421.00
2022-10-25T11:20:47.337Z,94415.00
2022-10-25T11:23:33.842Z,94422.00
2022-10-25T11:26:26.732Z,94416.00
2022-10-25T11:29:15.525Z,94407.00
2022-10-25T11:32:51.652Z,94411.00
2022-10-25T11:35:30.087Z,94406.00
2022-10-25T11:38:13.246Z,94407.00
2022-10-25T11:40:52.460Z,94413.00
2022-10-25T11:43:55.422Z,94378.00
2022-10-25T11:46:50.346Z,94405.00
2022-10-25T11:49:56.015Z,94404.00
2022-10-25T11:52:41.850Z,94412.00
2022-10-25T11:55:26.127Z,94402.00
2022-10-25T11:58:37.377Z,94405.00
2022-10-25T12:01:06.946Z,94403.00
2022-10-25T12:04:29.466Z,94403.00
2022-10-25T12:07:20.058Z,94396.00
2022-10-25T12:10:26.707Z,94384.00
2022-10-25T12:13:14.942Z,94393.00
2022-10-25T12:15:48.976Z,94391.00
2022-10-25T12:18:26.121Z,94376.00
2022-10-25T12:20:54.675Z,94380.00
2022-10-25T12:23:27.737Z,94377.00
2022-10-25T12:26:10.409Z,94371.00
2022-10-25T12:28:51.278Z,94371.00
2022-10-25T12:31:29.689Z,94375.00
2022-10-25T12:34:13.229Z,94368.00
2022-10-25T12:36:56.923Z,94375.00
2022-10-25T12:39:36.641Z,94376.00
2022-10-25T12:42:09.792Z,94357.00
2022-10-25T12:45:02.247Z,94369.00
2022-10-25T12:47:55.662Z,94363.00
2022-10-25T12:50:34.374Z,94359.00
2022-10-25T12:53:45.864Z,94369.00
2022-10-25T12:57:08.834Z,94368.00
2022-10-25T13:00:12.210Z,94367.00
2022-10-25T13:03:10.395Z,94362.00
2022-10-25T13:06:09.447Z,94359.00
2022-10-25T13:08:41.439Z,94358.00
2022-10-25T13:11:10.323Z,94353.00
2022-10-25T13:13:46.151Z,94354.00
2022-10-25T13:16:28.212Z,94355.00
2022-10-25T13:19:49.349Z,94348.00
2022-10-25T13:22:35.782Z,94355.00
2022-10-25T13:25:16.617Z,94354.00
2022-10-25T13:28:11.191Z,94354.00
2022-10-25T13:30:38.169Z,94348.00
2022-10-25T13:33:24.282Z,94346.00
2022-10-25T13:35:51.306Z,94334.00
2022-10-25T13:38:34.214Z,94337.00
2022-10-25T13:41:20.865Z,94338.00
2022-10-25T13:44:05.123Z,94338.00
2022-10-25T13:46:38.286Z,94341.00
2022-10-25T13:49:36.258Z,94344.00
2022-10-25T13:52:23.420Z,94333.00
2022-10-25T13:54:55.046Z,94323.00
2022-10-25T13:57:58.089Z,94327.00
2022-10-25T14:00:32.072Z,94326.00
2022-10-25T14:03:13.076Z,94331.00
2022-10-25T14:05:55.129Z,94327.00
2022-10-25T14:08:46.119Z,94328.00
2022-10-25T14:11:28.849Z,94327.00
2022-10-25T14:14:13.180Z,94322.00
2022-10-25T14:17:23.316Z,94316.00
2022-10-25T14:20:04.197Z,94313.00
2022-10-25T14:22:40.706Z,94317.00
2022-10-25T14:25:32.063Z,94296.00
2022-10-25T14:28:06.189Z,94319.00
2022-10-25T14:30:43.330Z,94319.00
2022-10-25T14:33:35.530Z,94316.00
2022-10-25T14:36:35.189Z,94311.00
2022-10-25T14:39:17.625Z,94311.00
2022-10-25T14:41:53.336Z,94314.00
2022-10-25T14:44:28.541Z,94314.00
2022-10-25T14:47:00.009Z,94311.00
2022-10-25T14:49:30.590Z,94308.00
2022-10-25T14:52:03.392Z,94305.00
2022-10-25T14:54:35.006Z,94304.00
2022-10-25T14:57:06.357Z,94308.00
2022-10-25T14:59:46.990Z,94315.00
2022-10-25T15:02:27.357Z,94302.00
2022-10-25T15:04:58.497Z,94288.00
2022-10-25T15:07:46.962Z,94312.00
2022-10-25T15:10:34.812Z,94317.00
2022-10-25T15:13:30.400Z,94309.00
2022-10-25T15:16:02.000Z,94301.00
2022-10-25T15:18:41.102Z,94301.00
2022-10-25T15:21:17.716Z,94308.00
2022-10-25T15:24:16.369Z,94314.00
2022-10-25T15:27:00.155Z,94313.00
2022-10-25T15:29:46.018Z,94300.00
2022-10-25T15:32:27.573Z,94301.00
2022-10-25T15:34:56.549Z,94304.00
2022-10-25T15:37:25.329Z,94308.00
2022-10-25T15:40:17.518Z,94311.00
2022-10-25T15:42:44.533Z,94314.00
2022-10-25T15:45:15.050Z,94317.00
2022-10-25T15:47:47.348Z,94306.00
2022-10-25T15:50:26.270Z,94312.00
2022-10-25T15:52:53.934Z,94316.00
2022-10-25T15:55:27.336Z,94303.00
2022-10-25T15:57:57.446Z,94307.00
2022-10-25T16:00:36.427Z,94302.00
2022-10-25T16:03:52.315Z,94304.00
2022-10-25T16:06:37.817Z,94309.00
2022-10-25T16:09:26.461Z,94309.00
2022-10-25T16:11:58.959Z,94306.00
2022-10-25T16:15:04.401Z,94313.00
2022-10-25T16:17:58.394Z,94316.00
2022-10-25T16:20:34.912Z,94313.00
2022-10-25T16:23:26.759Z,94310.00
2022-10-25T16:27:17.986Z,94315.00
2022-10-25T16:29:50.863Z,94310.00
2022-10-25T16:32:40.926Z,94311.00
2022-10-25T16:35:18.922Z,94305.00
2022-10-25T16:38:05.988Z,94299.00
2022-10-25T16:40:43.348Z,94287.00
2022-10-25T16:43:22.681Z,94310.00
2022-10-25T16:46:16.922Z,94305.00
2022-10-25T16:48:46.802Z,94313.00
2022-10-25T16:51:17.169Z,94308.00
2022-10-25T16:53:52.218Z,94307.00
2022-10-25T16:56:19.314Z,94306.00
2022-10-25T16:58:46.945Z,94307.00
2022-10-25T17:02:01.079Z,94307.00
2022-10-25T17:04:39.851Z,94283.00
2022-10-25T17:07:49.834Z,94294.00
2022-10-25T17:14:57.061Z,94285.00
2022-10-25T17:17:52.209Z,94253.00
2022-10-25T17:20:27.665Z,94275.00
2022-10-25T17:22:54.664Z,94275.00
2022-10-25T17:25:53.224Z,94291.00
2022-10-25T17:32:04.328Z,94245.00
2022-10-25T17:35:05.750Z,94303.00
2022-10-25T17:41:48.007Z,94294.00
2022-10-25T17:48:12.244Z,94259.00
2022-10-25T17:51:06.915Z,94295.00
2022-10-25T17:57:51.340Z,94311.00
2022-10-25T18:00:39.681Z,94308.00
2022-10-25T18:03:41.975Z,94313.00
2022-10-25T18:07:23.283Z,94311.00
2022-10-25T18:09:55.256Z,94313.00
2022-10-25T18:16:38.020Z,94270.00
2022-10-25T18:19:29.767Z,94273.00
2022-10-25T18:22:21.241Z,94305.00
2022-10-25T18:24:48.311Z,94298.00
2022-10-25T18:27:16.413Z,94292.00
2022-10-25T18:29:44.625Z,94296.00
2022-10-25T18:32:17.379Z,94296.00
2022-10-25T18:34:53.739Z,94308.00
2022-10-25T18:37:27.912Z,94286.00
2022-10-25T18:40:02.677Z,94302.00
2022-10-25T18:42:41.354Z,94295.00
2022-10-25T18:45:19.716Z,94298.00
2022-10-25T18:47:56.459Z,94256.00
2022-10-25T18:50:28.821Z,94294.00
2022-10-25T18:53:00.084Z,94248.00
2022-10-25T18:55:45.777Z,94302.00
2022-10-25T19:01:28.113Z,94261.00
2022-10-25T19:04:06.630Z,94282.00
2022-10-25T19:07:02.054Z,94289.00
2022-10-25T19:09:53.646Z,94284.00
2022-10-25T19:12:25.545Z,94283.00
2022-10-25T19:15:04.813Z,94279.00
2022-10-25T19:17:46.475Z,94279.00
2022-10-25T19:20:17.704Z,94281.00
2022-10-25T19:23:03.670Z,94266.00
2022-10-25T19:25:34.701Z,94241.00
2022-10-25T19:28:03.200Z,94268.00
2022-10-25T19:30:34.262Z,94269.00
2022-10-25T19:33:13.851Z,94265.00
2022-10-25T19:35:50.045Z,94262.00
2022-10-25T19:38:30.994Z,94256.00
2022-10-25T19:43:57.494Z,94255.00
2022-10-25T19:46:26.736Z,94250.00
2022-10-25T19:48:56.418Z,94248.00
2022-10-25T19:51:26.291Z,94251.00
2022-10-25T19:56:39.362Z,94253.00
2022-10-25T19:59:14.849Z,94250.00
2022-10-25T20:07:19.435Z,94241.00
2022-10-25T20:09:57.835Z,94246.00
2022-10-25T20:15:26.239Z,94246.00
2022-10-25T20:17:57.153Z,94214.00
2022-10-25T20:20:29.918Z,94230.00
2022-10-25T20:22:58.973Z,94243.00
2022-10-25T20:25:33.436Z,94243.00
2022-10-25T20:28:04.758Z,94235.00
2022-10-25T20:30:48.282Z,94224.00
2022-10-25T20:33:27.815Z,94230.00
2022-10-25T20:36:09.039Z,94222.00
2022-10-25T20:38:36.947Z,94232.00
2022-10-25T20:41:18.675Z,94229.00
2022-10-25T20:43:50.876Z,94233.00
2022-10-25T20:46:19.876Z,94223.00
2022-10-25T20:48:54.433Z,94214.00
2022-10-25T20:51:25.591Z,94214.00
2022-10-25T20:53:57.140Z,94218.00
2022-10-25T20:56:29.455Z,94218.00
2022-10-25T20:58:58.029Z,94228.00
2022-10-25T21:01:26.027Z,94230.00
2022-10-25T21:03:54.044Z,94232.00
2022-10-25T21:06:22.638Z,94234.00
2022-10-25T21:08:53.188Z,94233.00
2022-10-25T21:11:20.155Z,94236.00
2022-10-25T21:13:47.168Z,94237.00
2022-10-25T21:16:20.312Z,94227.00
2022-10-25T21:18:49.395Z,94223.00
2022-10-25T21:21:19.025Z,94224.00
2022-10-25T21:23:49.595Z,94224.00
2022-10-25T21:26:16.868Z,94225.00
2022-10-25T21:28:46.571Z,94229.00
2022-10-25T21:31:16.333Z,94228.00
2022-10-25T21:33:52.512Z,94226.00
2022-10-25T21:36:25.399Z,94227.00
2022-10-25T21:38:52.667Z,94219.00
2022-10-25T21:41:27.104Z,94220.00
2022-10-25T21:43:55.578Z,94221.00
2022-10-25T21:46:26.806Z,94212.00
2022-10-25T21:48:55.255Z,94199.00
2022-10-25T21:51:27.503Z,94191.00
2022-10-25T21:54:01.182Z,94201.00
2022-10-25T21:56:31.404Z,94200.00
2022-10-25T21:59:02.381Z,94197.00
2022-10-25T22:01:34.224Z,94204.00
2022-10-25T22:04:05.423Z,94190.00
2022-10-25T22:06:32.390Z,94198.00
2022-10-25T22:08:59.797Z,94198.00
2022-10-25T22:11:38.875Z,94197.00
2022-10-25T22:14:12.394Z,94197.00
2022-10-25T22:16:42.348Z,94190.00
2022-10-25T22:22:05.761Z,94192.00
2022-10-25T22:24:32.988Z,94186.00
2022-10-25T22:27:01.026Z,94178.00
2022-10-25T22:29:27.970Z,94186.00
2022-10-25T22:31:55.016Z,94184.00
2022-10-25T22:34:23.840Z,94183.00
2022-10-25T22:36:54.085Z,94190.00
2022-10-25T22:39:22.093Z,94195.00
2022-10-25T22:41:54.151Z,94192.00
2022-10-25T22:46:55.434Z,94182.00
2022-10-25T22:49:27.266Z,94202.00
2022-10-25T22:51:57.046Z,94189.00
2022-10-25T22:54:24.066Z,94197.00
2022-10-25T22:56:54.578Z,94201.00
2022-10-25T22:59:25.075Z,94205.00
2022-10-25T23:01:55.698Z,94200.00
2022-10-25T23:04:27.166Z,94195.00
2022-10-25T23:06:54.089Z,94200.00
2022-10-25T23:09:23.981Z,94196.00
2022-10-25T23:11:50.929Z,94187.00
2022-10-25T23:14:17.830Z,94189.00
2022-10-25T23:16:46.065Z,94192.00
2022-10-25T23:19:12.966Z,94191.00
2022-10-25T23:21:39.848Z,94198.00
2022-10-25T23:24:10.190Z,94203.00
2022-10-25T23:26:37.179Z,94194.00
2022-10-25T23:29:06.478Z,94199.00
2022-10-25T23:31:33.470Z,94191.00
2022-10-25T23:34:01.255Z,94191.00
2022-10-25T23:36:37.473Z,94191.00
2022-10-25T23:39:08.161Z,94196.00
2022-10-25T23:41:35.200Z,94194.00
2022-10-25T23:44:02.248Z,94188.00
2022-10-25T23:46:31.630Z,94177.00
2022-10-25T23:48:58.759Z,94186.00
2022-10-25T23:51:28.190Z,94189.00
2022-10-25T23:53:55.060Z,94195.00
2022-10-25T23:56:26.952Z,94194.00
2022-10-25T23:58:56.312Z,94196.00
